createdAt,value
2022-12-16T00:01:48.948Z,30.97
2022-12-16T00:04:16.112Z,32.93
2022-12-16T00:06:44.583Z,31.90
2022-12-16T00:09:11.671Z,33.57
2022-12-16T00:11:38.727Z,31.33
2022-12-16T00:14:05.874Z,32.13
2022-12-16T00:16:33.036Z,33.13
2022-12-16T00:19:00.276Z,32.13
2022-12-16T00:21:27.371Z,34.00
2022-12-16T00:23:55.818Z,26.97
2022-12-16T00:26:22.958Z,27.97
2022-12-16T00:28:50.029Z,27.17
2022-12-16T00:31:18.933Z,29.33
2022-12-16T00:33:46.049Z,33.23
2022-12-16T00:36:13.177Z,29.77
2022-12-16T00:38:40.298Z,31.03
2022-12-16T00:41:08.732Z,29.33
2022-12-16T00:43:36.220Z,30.33
2022-12-16T00:46:03.619Z,32.33
2022-12-16T00:48:30.795Z,27.30
2022-12-16T00:50:57.900Z,31.00
2022-12-16T00:53:25.961Z,32.43
2022-12-16T00:55:53.092Z,33.57
2022-12-16T00:58:22.198Z,32.50
2022-12-16T01:00:51.917Z,31.30
2022-12-16T01:03:21.885Z,28.60
2022-12-16T01:05:49.366Z,34.73
2022-12-16T01:08:16.733Z,33.97
2022-12-16T01:10:43.833Z,31.77
2022-12-16T01:13:10.912Z,30.50
2022-12-16T01:15:39.346Z,33.80
2022-12-16T01:18:06.482Z,32.50
2022-12-16T01:20:33.621Z,32.43
2022-12-16T01:23:00.768Z,32.40
2022-12-16T01:25:27.853Z,31.13
2022-12-16T01:27:54.971Z,33.23
2022-12-16T01:30:22.390Z,30.63
2022-12-16T01:32:50.893Z,29.40
2022-12-16T01:35:51.318Z,31.70
2022-12-16T01:38:06.505Z,32.70
2022-12-16T01:40:33.642Z,33.00
2022-12-16T01:43:00.754Z,33.80
2022-12-16T01:45:30.025Z,32.57
2022-12-16T01:47:59.806Z,30.20
2022-12-16T01:50:27.482Z,28.20
2022-12-16T01:52:57.148Z,29.93
2022-12-16T01:55:26.449Z,33.00
2022-12-16T01:57:55.874Z,35.20
2022-12-16T02:00:23.279Z,34.27
2022-12-16T02:02:51.840Z,32.00
2022-12-16T02:05:21.006Z,29.80
2022-12-16T02:07:52.869Z,32.20
2022-12-16T02:10:21.721Z,32.20
2022-12-16T02:12:53.419Z,34.97
2022-12-16T02:15:25.662Z,33.50
2022-12-16T02:17:55.969Z,30.67
2022-12-16T02:20:40.768Z,30.60
2022-12-16T02:23:22.233Z,29.37
2022-12-16T02:26:11.923Z,31.57
2022-12-16T02:28:47.993Z,30.13
2022-12-16T02:31:20.601Z,27.83
2022-12-16T02:33:52.788Z,32.67
2022-12-16T02:36:25.419Z,29.67
2022-12-16T02:38:56.469Z,29.10
2022-12-16T02:41:26.160Z,32.53
2022-12-16T02:43:55.313Z,28.63
2022-12-16T02:46:26.145Z,31.30
2022-12-16T02:48:53.604Z,30.60
2022-12-16T02:51:21.030Z,28.83
2022-12-16T02:53:49.494Z,28.90
2022-12-16T02:56:23.992Z,29.30
2022-12-16T02:58:52.750Z,28.77
2022-12-16T03:01:24.505Z,31.20
2022-12-16T03:03:57.877Z,29.23
2022-12-16T03:06:25.886Z,31.67
2022-12-16T03:08:55.801Z,32.10
2022-12-16T03:11:24.321Z,31.23
2022-12-16T03:13:53.593Z,33.50
2022-12-16T03:16:22.781Z,28.77
2022-12-16T03:18:51.643Z,27.70
2022-12-16T03:21:24.802Z,28.63
2022-12-16T03:23:53.721Z,31.27
2022-12-16T03:26:24.602Z,32.20
2022-12-16T03:28:54.603Z,22.57
2022-12-16T03:31:28.134Z,29.33
2022-12-16T03:33:57.829Z,28.60
2022-12-16T03:36:27.333Z,30.00
2022-12-16T03:38:54.810Z,27.30
2022-12-16T03:41:23.505Z,29.63
2022-12-16T03:43:50.993Z,31.20
2022-12-16T03:46:18.954Z,32.40
2022-12-16T03:48:46.673Z,29.90
2022-12-16T03:51:13.880Z,26.80
2022-12-16T03:53:42.321Z,25.97
2022-12-16T03:56:09.419Z,30.20
2022-12-16T03:58:36.552Z,29.10
2022-12-16T04:01:03.637Z,27.83
2022-12-16T04:03:31.178Z,31.63
2022-12-16T04:05:58.504Z,26.00
2022-12-16T04:08:25.630Z,23.10
2022-12-16T04:10:54.366Z,26.90
2022-12-16T04:13:22.095Z,25.60
2022-12-16T04:15:49.224Z,24.87
2022-12-16T04:18:18.179Z,23.40
2022-12-16T04:20:46.294Z,30.17
2022-12-16T04:23:13.397Z,24.37
2022-12-16T04:25:40.510Z,27.70
2022-12-16T04:28:08.971Z,28.50
2022-12-16T04:30:36.226Z,28.30
2022-12-16T04:33:05.509Z,29.73
2022-12-16T04:35:32.693Z,27.60
2022-12-16T04:37:59.810Z,29.03
2022-12-16T04:40:26.886Z,30.27
2022-12-16T04:42:53.997Z,30.50
2022-12-16T04:45:22.434Z,29.97
2022-12-16T04:47:54.089Z,31.10
2022-12-16T04:50:24.099Z,27.53
2022-12-16T04:52:51.392Z,27.40
2022-12-16T04:55:18.521Z,29.60
2022-12-16T04:57:47.762Z,30.07
2022-12-16T05:00:14.914Z,26.77
2022-12-16T05:02:43.450Z,26.53
2022-12-16T05:05:10.560Z,27.47
2022-12-16T05:07:38.729Z,28.20
2022-12-16T05:10:06.410Z,26.53
2022-12-16T05:12:33.543Z,25.77
2022-12-16T05:15:00.654Z,28.03
2022-12-16T05:17:27.843Z,26.03
2022-12-16T05:19:56.339Z,24.90
2022-12-16T05:22:23.454Z,32.13
2022-12-16T05:24:53.041Z,24.60
2022-12-16T05:27:20.432Z,28.00
2022-12-16T05:29:47.502Z,27.77
2022-12-16T05:32:14.852Z,29.03
2022-12-16T05:34:42.001Z,28.70
2022-12-16T05:37:10.450Z,27.87
2022-12-16T05:39:37.588Z,28.50
2022-12-16T05:42:04.815Z,27.97
2022-12-16T05:44:31.869Z,26.43
2022-12-16T05:46:59.109Z,26.10
2022-12-16T05:49:26.268Z,25.93
2022-12-16T05:51:53.383Z,26.17
2022-12-16T05:54:21.817Z,25.90
2022-12-16T05:56:48.949Z,27.60
2022-12-16T05:59:16.051Z,25.10
2022-12-16T06:01:43.322Z,26.27
2022-12-16T06:04:15.557Z,24.17
2022-12-16T06:06:44.663Z,26.50
2022-12-16T06:09:11.765Z,25.80
2022-12-16T06:11:40.197Z,25.40
2022-12-16T06:14:07.621Z,24.37
2022-12-16T06:16:34.777Z,25.07
2022-12-16T06:19:01.909Z,25.47
2022-12-16T06:21:28.999Z,25.87
2022-12-16T06:23:56.140Z,29.10
2022-12-16T06:26:23.261Z,28.67
2022-12-16T06:28:51.841Z,27.83
2022-12-16T06:31:19.023Z,28.37
2022-12-16T06:33:48.637Z,27.67
2022-12-16T06:36:19.049Z,30.40
2022-12-16T06:38:46.112Z,29.53
2022-12-16T06:41:13.225Z,28.50
2022-12-16T06:43:40.310Z,26.27
2022-12-16T06:46:08.894Z,30.33
2022-12-16T06:48:36.035Z,27.97
2022-12-16T06:51:03.157Z,28.27
2022-12-16T06:53:30.625Z,29.40
2022-12-16T06:55:58.012Z,27.03
2022-12-16T06:58:25.140Z,26.87
2022-12-16T07:00:52.401Z,29.00
2022-12-16T07:03:20.979Z,32.40
2022-12-16T07:05:48.108Z,24.03
2022-12-16T07:08:15.172Z,27.17
2022-12-16T07:10:42.280Z,24.63
2022-12-16T07:13:09.344Z,26.87
2022-12-16T07:15:36.486Z,25.30
2022-12-16T07:18:03.552Z,28.90
2022-12-16T07:20:32.036Z,24.70
2022-12-16T07:23:08.373Z,26.27
2022-12-16T07:25:39.125Z,29.10
2022-12-16T07:28:09.458Z,26.70
2022-12-16T07:30:42.672Z,25.83
2022-12-16T07:33:09.777Z,24.43
2022-12-16T07:35:38.207Z,30.20
2022-12-16T07:38:05.334Z,26.27
2022-12-16T07:40:32.456Z,28.80
2022-12-16T07:42:59.613Z,29.77
2022-12-16T07:45:26.757Z,25.13
2022-12-16T07:47:54.006Z,25.27
2022-12-16T07:50:22.564Z,29.33
2022-12-16T07:52:55.642Z,25.30
2022-12-16T07:55:22.790Z,27.63
2022-12-16T07:57:50.388Z,27.67
2022-12-16T08:00:17.898Z,25.80
2022-12-16T08:02:46.451Z,21.47
2022-12-16T08:05:14.118Z,27.80
2022-12-16T08:07:41.496Z,26.37
2022-12-16T08:10:10.400Z,25.97
2022-12-16T08:12:37.558Z,21.83
2022-12-16T08:15:05.138Z,28.10
2022-12-16T08:17:32.397Z,27.90
2022-12-16T08:19:59.485Z,25.60
2022-12-16T08:22:26.608Z,26.30
2022-12-16T08:24:55.990Z,22.70
2022-12-16T08:27:24.693Z,26.63
2022-12-16T08:29:52.039Z,24.10
2022-12-16T08:32:19.247Z,24.37
2022-12-16T08:34:46.358Z,25.80
2022-12-16T08:37:13.503Z,26.37
2022-12-16T08:39:40.585Z,29.43
2022-12-16T08:42:07.705Z,30.67
2022-12-16T08:44:36.235Z,27.77
2022-12-16T08:47:03.507Z,26.27
2022-12-16T08:49:30.700Z,26.73
2022-12-16T08:51:57.930Z,25.93
2022-12-16T08:54:25.026Z,29.87
2022-12-16T08:56:52.223Z,32.67
2022-12-16T08:59:19.401Z,33.63
2022-12-16T09:01:47.999Z,32.60
2022-12-16T09:04:15.308Z,33.20
2022-12-16T09:06:42.481Z,32.47
2022-12-16T09:09:09.600Z,34.97
2022-12-16T09:11:36.698Z,33.83
2022-12-16T09:14:04.018Z,32.60
2022-12-16T09:16:31.214Z,34.90
2022-12-16T09:18:59.751Z,30.37
2022-12-16T09:21:31.758Z,30.03
2022-12-16T09:24:00.380Z,31.70
2022-12-16T09:26:27.639Z,31.30
2022-12-16T09:28:54.769Z,30.50
2022-12-16T09:31:21.933Z,31.40
2022-12-16T09:33:49.119Z,32.67
2022-12-16T09:36:17.596Z,30.63
2022-12-16T09:38:44.680Z,31.67
2022-12-16T09:41:21.134Z,29.67
2022-12-16T09:43:55.246Z,28.57
2022-12-16T09:46:28.643Z,29.10
2022-12-16T09:49:00.925Z,31.70
2022-12-16T09:51:29.602Z,28.23
2022-12-16T09:53:56.921Z,30.33
2022-12-16T09:56:27.541Z,29.27
2022-12-16T09:58:57.988Z,28.30
2022-12-16T10:01:25.617Z,29.53
2022-12-16T10:03:52.909Z,29.80
2022-12-16T10:06:27.878Z,29.57
2022-12-16T10:09:00.082Z,32.63
2022-12-16T10:11:33.316Z,30.03
2022-12-16T10:14:03.293Z,33.37
2022-12-16T10:16:36.830Z,31.83
2022-12-16T10:19:11.261Z,33.10
2022-12-16T10:21:42.517Z,32.00
2022-12-16T10:24:18.614Z,28.20
2022-12-16T10:26:51.679Z,29.50
2022-12-16T10:29:22.467Z,31.53
2022-12-16T10:31:49.772Z,31.97
2022-12-16T10:34:20.047Z,30.63
2022-12-16T10:36:47.749Z,31.90
2022-12-16T10:39:22.804Z,30.07
2022-12-16T10:41:52.348Z,30.20
2022-12-16T10:44:23.125Z,32.23
2022-12-16T10:46:50.388Z,32.13
2022-12-16T10:49:18.803Z,33.47
2022-12-16T10:51:45.947Z,32.80
2022-12-16T10:54:23.600Z,32.20
2022-12-16T10:56:55.520Z,32.97
2022-12-16T10:59:23.321Z,31.63
2022-12-16T11:01:56.943Z,32.47
2022-12-16T11:04:30.841Z,33.93
2022-12-16T11:06:58.008Z,35.30
2022-12-16T11:09:28.384Z,34.77
2022-12-16T11:12:13.854Z,34.63
2022-12-16T11:15:20.432Z,36.20
2022-12-16T11:17:39.604Z,38.37
2022-12-16T11:20:08.822Z,34.87
2022-12-16T11:22:36.001Z,33.00
2022-12-16T11:25:06.367Z,37.30
2022-12-16T11:27:33.451Z,35.10
2022-12-16T11:30:01.308Z,36.53
2022-12-16T11:32:29.128Z,33.17
2022-12-16T11:34:58.439Z,37.63
2022-12-16T11:37:26.513Z,36.03
2022-12-16T11:39:53.647Z,40.50
2022-12-16T11:42:23.227Z,37.23
2022-12-16T11:44:51.676Z,34.83
2022-12-16T11:47:22.733Z,35.50
2022-12-16T11:49:50.744Z,37.53
2022-12-16T11:55:12.396Z,42.40
2022-12-16T11:57:44.835Z,39.30
2022-12-16T12:00:14.136Z,37.20
2022-12-16T12:02:44.530Z,37.60
2022-12-16T12:05:12.892Z,39.53
2022-12-16T12:07:45.707Z,37.43
2022-12-16T12:10:23.492Z,37.47
2022-12-16T12:12:55.074Z,37.40
2022-12-16T12:15:25.124Z,36.83
2022-12-16T12:17:56.269Z,36.50
2022-12-16T12:20:31.410Z,35.37
2022-12-16T12:23:00.320Z,30.50
2022-12-16T12:25:31.342Z,34.93
2022-12-16T12:28:04.481Z,35.57
2022-12-16T12:30:36.050Z,34.13
2022-12-16T12:33:08.889Z,33.73
2022-12-16T12:35:46.286Z,36.03
2022-12-16T12:38:16.470Z,32.17
2022-12-16T12:40:48.503Z,34.77
2022-12-16T12:43:22.414Z,35.47
2022-12-16T12:45:54.224Z,33.77
2022-12-16T12:48:23.074Z,30.10
2022-12-16T12:50:54.747Z,29.63
2022-12-16T12:53:27.017Z,29.00
2022-12-16T12:55:58.232Z,33.67
2022-12-16T12:58:27.449Z,30.33
2022-12-16T13:00:55.972Z,27.77
2022-12-16T13:03:28.441Z,28.73
2022-12-16T13:05:55.721Z,26.50
2022-12-16T13:08:41.765Z,30.97
2022-12-16T13:11:12.684Z,26.93
2022-12-16T13:13:41.143Z,27.07
2022-12-16T13:16:11.011Z,29.70
2022-12-16T13:18:38.096Z,27.30
2022-12-16T13:21:05.667Z,32.13
2022-12-16T13:23:33.886Z,27.07
2022-12-16T13:26:05.207Z,27.47
2022-12-16T13:28:33.668Z,31.17
2022-12-16T13:31:03.671Z,38.10
2022-12-16T13:33:31.889Z,28.80
2022-12-16T13:36:00.117Z,28.70
2022-12-16T13:38:27.302Z,30.70
2022-12-16T13:40:55.279Z,33.97
2022-12-16T13:43:37.470Z,30.73
2022-12-16T13:46:16.495Z,34.33
2022-12-16T13:48:43.680Z,32.00
2022-12-16T13:51:30.820Z,31.77
2022-12-16T13:54:00.127Z,33.43
2022-12-16T13:56:31.254Z,37.00
2022-12-16T13:59:00.283Z,34.97
2022-12-16T14:01:30.200Z,34.07
2022-12-16T14:03:58.548Z,35.37
2022-12-16T14:06:26.509Z,35.13
2022-12-16T14:08:53.660Z,32.63
2022-12-16T14:11:24.089Z,32.20
2022-12-16T14:13:54.175Z,31.57
2022-12-16T14:16:25.674Z,33.70
2022-12-16T14:19:03.372Z,34.47
2022-12-16T14:21:33.454Z,36.07
2022-12-16T14:24:03.716Z,32.23
2022-12-16T14:26:35.463Z,31.80
2022-12-16T14:29:03.858Z,53.20
2022-12-16T14:31:35.399Z,41.43
2022-12-16T14:34:03.747Z,45.57
2022-12-16T14:36:38.642Z,60.67
2022-12-16T14:39:09.817Z,35.93
2022-12-16T14:41:38.287Z,33.73
2022-12-16T14:44:06.326Z,35.60
2022-12-16T14:46:33.537Z,36.00
2022-12-16T14:49:00.689Z,36.00
2022-12-16T14:51:28.602Z,32.70
2022-12-16T14:53:55.728Z,30.40
2022-12-16T14:56:23.940Z,30.70
2022-12-16T14:59:06.901Z,39.30
2022-12-16T15:01:34.437Z,32.23
2022-12-16T15:04:03.650Z,30.93
2022-12-16T15:06:32.776Z,31.73
2022-12-16T15:09:02.824Z,32.67
2022-12-16T15:11:29.983Z,31.50
2022-12-16T15:14:03.911Z,33.43
2022-12-16T15:16:34.598Z,36.43
2022-12-16T15:19:02.167Z,33.67
2022-12-16T15:21:29.658Z,42.13
2022-12-16T15:23:57.144Z,44.93
2022-12-16T15:26:25.471Z,34.83
2022-12-16T15:28:52.874Z,36.40
2022-12-16T15:31:24.223Z,38.10
2022-12-16T15:34:12.682Z,34.47
2022-12-16T15:36:39.786Z,38.83
2022-12-16T15:39:10.083Z,36.20
2022-12-16T15:41:38.054Z,42.37
2022-12-16T15:44:05.349Z,51.00
2022-12-16T15:46:33.176Z,45.93
2022-12-16T15:49:01.710Z,43.27
2022-12-16T15:51:30.431Z,33.53
2022-12-16T15:54:02.078Z,59.77
2022-12-16T15:56:34.302Z,39.17
2022-12-16T15:59:13.899Z,46.37
2022-12-16T16:01:41.360Z,45.10
2022-12-16T16:04:18.435Z,38.77
2022-12-16T16:06:46.662Z,37.87
2022-12-16T16:09:14.333Z,35.73
2022-12-16T16:11:41.855Z,34.80
2022-12-16T16:14:13.911Z,36.43
2022-12-16T16:16:41.616Z,34.10
2022-12-16T16:19:11.679Z,36.73
2022-12-16T16:21:40.151Z,39.90
2022-12-16T16:24:07.491Z,32.97
2022-12-16T16:26:34.615Z,33.60
2022-12-16T16:29:01.729Z,37.07
2022-12-16T16:31:28.979Z,37.07
2022-12-16T16:33:56.128Z,44.40
2022-12-16T16:36:23.269Z,40.57
2022-12-16T16:38:51.717Z,38.70
2022-12-16T16:41:20.172Z,35.60
2022-12-16T16:43:47.247Z,38.47
2022-12-16T16:46:23.974Z,33.60
2022-12-16T16:48:52.446Z,39.43
2022-12-16T16:51:19.560Z,33.53
2022-12-16T16:53:46.701Z,38.27
2022-12-16T16:56:19.904Z,42.23
2022-12-16T16:58:47.458Z,37.97
2022-12-16T17:01:15.424Z,38.03
2022-12-16T17:03:44.092Z,36.80
2022-12-16T17:06:11.536Z,36.60
2022-12-16T17:08:38.731Z,37.73
2022-12-16T17:11:10.341Z,36.47
2022-12-16T17:13:38.793Z,38.87
2022-12-16T17:16:06.230Z,34.63
2022-12-16T17:18:33.733Z,36.30
2022-12-16T17:21:01.949Z,45.87
2022-12-16T17:23:29.065Z,37.70
2022-12-16T17:25:56.293Z,37.93
2022-12-16T17:28:23.592Z,39.63
2022-12-16T17:30:52.110Z,35.60
2022-12-16T17:33:19.345Z,38.40
2022-12-16T17:35:48.717Z,36.17
2022-12-16T17:38:15.820Z,37.40
2022-12-16T17:40:42.924Z,35.50
2022-12-16T17:43:10.248Z,36.60
2022-12-16T17:45:37.373Z,33.47
2022-12-16T17:48:06.024Z,34.43
2022-12-16T17:50:33.129Z,34.70
2022-12-16T17:53:00.291Z,37.07
2022-12-16T17:55:27.464Z,38.20
2022-12-16T17:57:54.594Z,36.13
2022-12-16T18:00:21.739Z,36.60
2022-12-16T18:02:49.133Z,36.43
2022-12-16T18:05:17.763Z,39.10
2022-12-16T18:07:44.865Z,36.60
2022-12-16T18:10:11.986Z,35.37
2022-12-16T18:12:39.165Z,36.93
2022-12-16T18:15:06.545Z,39.20
2022-12-16T18:17:33.678Z,39.13
2022-12-16T18:20:00.768Z,37.83
2022-12-16T18:22:29.235Z,37.07
2022-12-16T18:24:56.347Z,39.93
2022-12-16T18:27:23.442Z,38.47
2022-12-16T18:29:50.558Z,36.97
2022-12-16T18:32:17.686Z,38.37
2022-12-16T18:34:44.795Z,40.23
2022-12-16T18:37:12.693Z,39.03
2022-12-16T18:39:41.160Z,35.60
2022-12-16T18:42:08.960Z,37.17
2022-12-16T18:44:36.145Z,38.80
2022-12-16T18:47:03.302Z,35.53
2022-12-16T18:49:30.519Z,42.93
2022-12-16T18:51:57.600Z,41.00
2022-12-16T18:54:24.748Z,39.37
2022-12-16T18:56:53.181Z,41.40
2022-12-16T18:59:20.308Z,38.97
2022-12-16T19:01:47.462Z,41.47
2022-12-16T19:04:14.747Z,42.20
2022-12-16T19:06:42.080Z,40.43
2022-12-16T19:09:09.193Z,38.07
2022-12-16T19:11:36.330Z,39.17
2022-12-16T19:14:04.809Z,36.13
2022-12-16T19:16:32.047Z,36.80
2022-12-16T19:18:59.196Z,36.97
2022-12-16T19:21:26.468Z,36.83
2022-12-16T19:23:55.093Z,39.47
2022-12-16T19:26:22.271Z,39.80
2022-12-16T19:28:49.426Z,38.07
2022-12-16T19:31:17.887Z,38.93
2022-12-16T19:33:45.069Z,38.80
2022-12-16T19:36:12.169Z,41.60
2022-12-16T19:38:39.302Z,39.67
2022-12-16T19:41:14.061Z,41.53
2022-12-16T19:43:41.177Z,43.70
2022-12-16T19:46:08.366Z,37.67
2022-12-16T19:48:37.795Z,38.00
2022-12-16T19:51:05.110Z,35.63
2022-12-16T19:53:32.278Z,34.90
2022-12-16T19:55:59.877Z,38.97
2022-12-16T19:58:27.000Z,35.40
2022-12-16T20:00:54.109Z,38.70
2022-12-16T20:03:21.378Z,37.33
2022-12-16T20:05:58.741Z,35.77
2022-12-16T20:08:25.939Z,38.40
2022-12-16T20:10:54.830Z,32.37
2022-12-16T20:13:28.520Z,38.03
2022-12-16T20:16:01.084Z,34.80
2022-12-16T20:18:28.238Z,38.33
2022-12-16T20:20:56.739Z,33.37
2022-12-16T20:23:23.866Z,36.57
2022-12-16T20:25:56.462Z,35.97
2022-12-16T20:31:11.149Z,29.73
2022-12-16T20:33:38.235Z,28.93
2022-12-16T20:36:07.232Z,27.53
2022-12-16T20:38:34.889Z,35.17
2022-12-16T20:41:03.086Z,30.07
2022-12-16T20:43:30.172Z,31.87
2022-12-16T20:45:57.307Z,29.70
2022-12-16T20:48:24.458Z,30.80
2022-12-16T20:50:58.386Z,30.47
2022-12-16T20:53:27.246Z,34.30
2022-12-16T20:55:56.272Z,30.83
2022-12-16T20:58:23.411Z,32.47
2022-12-16T21:00:51.931Z,33.10
2022-12-16T21:03:19.136Z,34.20
2022-12-16T21:05:46.426Z,37.07
2022-12-16T21:08:13.537Z,36.57
2022-12-16T21:10:42.008Z,34.27
2022-12-16T21:13:09.502Z,35.53
2022-12-16T21:14:42.476Z,32.10
2022-12-16T21:15:37.650Z,35.40
2022-12-16T21:18:04.969Z,35.90
2022-12-16T21:20:32.111Z,35.37
2022-12-16T21:22:59.848Z,34.37
2022-12-16T21:25:26.948Z,36.23
2022-12-16T21:27:58.048Z,35.23
2022-12-16T21:30:25.413Z,32.60
2022-12-16T21:32:52.537Z,36.13
2022-12-16T21:35:20.917Z,37.53
2022-12-16T21:37:48.030Z,35.23
2022-12-16T21:40:15.170Z,34.20
2022-12-16T21:42:44.096Z,34.30
2022-12-16T21:45:13.161Z,35.80
2022-12-16T21:47:40.299Z,35.07
2022-12-16T21:50:07.672Z,35.20
2022-12-16T21:52:34.761Z,36.23
2022-12-16T21:55:01.860Z,33.13
2022-12-16T21:57:28.954Z,34.20
2022-12-16T21:59:56.445Z,32.33
2022-12-16T22:02:24.971Z,37.43
2022-12-16T22:04:52.169Z,38.90
2022-12-16T22:07:19.259Z,33.40
2022-12-16T22:09:46.528Z,37.10
2022-12-16T22:12:14.528Z,34.47
2022-12-16T22:14:41.651Z,35.70
2022-12-16T22:17:08.759Z,35.23
2022-12-16T22:19:38.556Z,32.57
2022-12-16T22:22:05.749Z,34.70
2022-12-16T22:24:32.851Z,38.07
2022-12-16T22:27:00.273Z,36.50
2022-12-16T22:29:27.384Z,34.27
2022-12-16T22:31:55.076Z,35.90
2022-12-16T22:34:23.589Z,36.47
2022-12-16T22:36:52.028Z,36.70
2022-12-16T22:39:19.179Z,38.50
2022-12-16T22:41:46.301Z,34.37
2022-12-16T22:44:13.441Z,36.40
2022-12-16T22:46:40.595Z,41.53
2022-12-16T22:49:07.741Z,40.67
2022-12-16T22:51:35.705Z,38.47
2022-12-16T22:54:04.277Z,36.70
2022-12-16T22:56:31.424Z,31.37
2022-12-16T22:58:58.539Z,35.80
2022-12-16T23:01:26.021Z,44.70
2022-12-16T23:03:53.857Z,38.40
2022-12-16T23:06:23.722Z,38.90
2022-12-16T23:08:51.851Z,42.63
2022-12-16T23:11:21.960Z,41.20
2022-12-16T23:13:49.055Z,38.93
2022-12-16T23:16:16.238Z,43.07
2022-12-16T23:18:43.425Z,41.70
2022-12-16T23:21:14.942Z,41.17
2022-12-16T23:23:42.598Z,35.47
2022-12-16T23:26:10.141Z,41.60
2022-12-16T23:28:38.626Z,38.30
2022-12-16T23:31:05.838Z,39.47
2022-12-16T23:33:33.005Z,39.47
2022-12-16T23:36:00.155Z,48.20
2022-12-16T23:38:27.243Z,39.13
2022-12-16T23:40:57.631Z,39.80
2022-12-16T23:43:24.706Z,39.77
2022-12-16T23:45:53.194Z,40.90
2022-12-16T23:48:23.415Z,40.43
2022-12-16T23:50:50.528Z,40.83
2022-12-16T23:53:17.644Z,42.40
2022-12-16T23:55:44.757Z,46.90
2022-12-16T23:58:11.878Z,41.30
